Skanee, Michigan
Current Conditions -  °F | °C
As of 11:53 PM on Thursday 27 Nov 2014 (Local Time) from KCMX Reporting Station
Light Snow Light Snow  
Wind Chill: -19°   Ceiling: 3100
Heat Index: -14°   Visibility: 6mi
Dew Point: -17°   Wind: 5mph
Humidity: 83%   Direction: 210°SSW
Pressure: 30.24"   Gusts: NA
Location:  46.87°N, 88.21°W
Report Text: KCMX 280453Z AUTO 21004KT 6SM -SN BR OVC031 M14/M17 A3024 RMK AO2 SNE22B53 SLP268 P0000 T11441167 411001144
Loading
Personal Weather Stations






























Interactive Weather Map New forecast layout! Learn more

10-Day Weather Forecast

Advertisements
Track Severe Weather on mobile